Time,TemperatureF,DewpointF,PressureIn,WindDirection,WindDirectionDegrees,WindSpeedMPH,WindSpeedGustMPH,Humidity,HourlyPrecipIn,Conditions,Clouds,dailyrainin,SoftwareType,DateUTC
2013-04-04 09:55:00,50.5,38.0,31.30,North,0,0.0,0.0,62,0.00,,---,0.00,VWS V14.01,2013-04-04 16:55:00,
2013-04-04 10:08:00,50.2,38.9,31.29,SSW,209,0.0,0.0,65,0.00,,---,0.00,VWS V14.01,2013-04-04 17:08:00,
2013-04-04 10:09:00,50.2,38.9,31.29,SSW,213,0.0,0.0,65,0.00,,---,0.00,VWS V14.01,2013-04-04 17:09:00,
2013-04-04 10:14:00,50.2,39.3,31.29,South,175,0.0,0.0,66,0.00,,---,0.00,VWS V14.01,2013-04-04 17:14:00,
2013-04-04 10:19:00,50.1,40.0,31.29,SSW,202,0.0,0.0,68,0.00,,---,0.00,VWS V14.01,2013-04-04 17:19:00,
2013-04-04 10:24:00,50.1,40.3,31.29,SSW,198,0.0,0.0,69,0.00,,---,0.00,VWS V14.01,2013-04-04 17:24:00,
2013-04-04 10:29:00,50.1,40.3,31.29,SW,233,0.0,0.0,69,0.00,,---,0.00,VWS V14.01,2013-04-04 17:29:00,
2013-04-04 10:34:00,50.7,40.5,31.30,South,183,0.0,0.0,68,0.00,,---,0.00,VWS V14.01,2013-04-04 17:34:00,
2013-04-04 10:39:00,51.6,40.2,31.30,South,180,0.0,0.0,65,0.00,,---,0.00,VWS V14.01,2013-04-04 17:39:00,
2013-04-04 10:45:00,52.3,39.7,31.30,South,181,0.0,0.0,62,0.00,,---,0.00,VWS V14.01,2013-04-04 17:45:00,
2013-04-04 10:50:00,52.6,39.5,31.31,SSW,206,0.0,0.0,61,0.00,,---,0.00,VWS V14.01,2013-04-04 17:50:00,
2013-04-04 10:55:00,52.8,40.2,31.31,SSW,201,0.0,0.0,62,0.00,,---,0.00,VWS V14.01,2013-04-04 17:55:00,
2013-04-04 11:00:00,53.2,39.7,31.31,South,180,0.0,0.0,60,0.00,,---,0.00,VWS V14.01,2013-04-04 18:00:00,
2013-04-04 11:05:00,53.9,40.8,31.31,SSW,207,0.0,0.0,61,0.00,,---,0.00,VWS V14.01,2013-04-04 18:05:00,
2013-04-04 11:10:00,54.5,40.5,31.31,SSW,194,0.0,0.0,59,0.00,,---,0.00,VWS V14.01,2013-04-04 18:10:00,
2013-04-04 11:15:00,55.6,41.1,31.32,SSW,201,0.0,0.0,58,0.00,,---,0.00,VWS V14.01,2013-04-04 18:15:00,
2013-04-04 11:20:00,55.7,40.3,31.32,SSW,193,0.0,0.0,56,0.00,,---,0.00,VWS V14.01,2013-04-04 18:20:00,
2013-04-04 11:25:00,55.4,39.5,31.31,South,172,0.0,0.0,55,0.00,,---,0.00,VWS V14.01,2013-04-04 18:25:00,
2013-04-04 11:30:00,55.6,38.8,31.32,South,189,0.0,0.0,53,0.00,,---,0.00,VWS V14.01,2013-04-04 18:30:00,
2013-04-04 11:35:00,56.0,39.6,31.32,SW,227,0.0,0.0,54,0.00,,---,0.00,VWS V14.01,2013-04-04 18:35:00,
2013-04-04 11:40:00,56.9,40.4,31.32,South,181,0.0,0.0,54,0.00,,---,0.00,VWS V14.01,2013-04-04 18:40:00,
2013-04-04 11:45:00,56.0,39.1,31.32,SSW,213,0.0,0.0,53,0.00,,---,0.00,VWS V14.01,2013-04-04 18:45:00,
2013-04-04 11:51:00,56.3,38.9,31.32,SSW,195,0.0,0.0,52,0.00,,---,0.00,VWS V14.01,2013-04-04 18:51:00,
2013-04-04 11:56:00,56.6,38.7,31.32,South,188,0.0,0.0,51,0.00,,---,0.00,VWS V14.01,2013-04-04 18:56:00,
2013-04-04 12:01:00,56.6,38.7,31.32,SW,219,0.0,0.0,51,0.00,,---,0.00,VWS V14.01,2013-04-04 19:01:00,
2013-04-04 12:06:00,56.5,39.1,31.32,SSW,194,0.0,0.0,52,0.00,,---,0.00,VWS V14.01,2013-04-04 19:06:00,
2013-04-04 12:11:00,55.7,37.9,31.32,SSW,198,0.0,0.0,51,0.00,,---,0.00,VWS V14.01,2013-04-04 19:11:00,
2013-04-04 12:16:00,56.2,39.3,31.32,SW,215,0.0,0.0,53,0.00,,---,0.00,VWS V14.01,2013-04-04 19:16:00,
2013-04-04 12:22:00,56.2,37.8,31.32,SW,222,0.0,0.0,50,0.00,,---,0.00,VWS V14.01,2013-04-04 19:22:00,
2013-04-04 12:27:00,55.4,37.6,31.31,South,187,0.0,0.0,51,0.00,,---,0.00,VWS V14.01,2013-04-04 19:27:00,
2013-04-04 12:32:00,55.1,38.8,31.31,SSW,192,0.0,0.0,54,0.00,,---,0.00,VWS V14.01,2013-04-04 19:32:00,
2013-04-04 12:37:00,54.7,37.9,31.31,SSW,192,0.0,0.0,53,0.00,,---,0.00,VWS V14.01,2013-04-04 19:37:00,
2013-04-04 12:42:00,53.8,37.6,31.31,South,189,0.0,0.0,54,0.00,,---,0.00,VWS V14.01,2013-04-04 19:42:00,
2013-04-04 12:47:00,53.8,38.9,31.31,South,190,0.0,0.0,57,0.00,,---,0.00,VWS V14.01,2013-04-04 19:47:00,
2013-04-04 13:55:00,59.9,39.1,31.33,SSE,164,0.0,0.0,46,0.00,,---,0.00,VWS V14.01,2013-04-04 20:55:00,
2013-04-04 14:01:00,60.1,38.1,31.33,SW,228,0.0,0.0,44,0.00,,---,0.00,VWS V14.01,2013-04-04 21:01:00,
2013-04-04 14:06:00,59.8,36.1,31.33,SSE,164,0.0,0.0,41,0.00,,---,0.00,VWS V14.01,2013-04-04 21:06:00,
2013-04-04 14:11:00,59.9,36.8,31.33,South,186,0.0,0.0,42,0.00,,---,0.00,VWS V14.01,2013-04-04 21:11:00,
2013-04-04 14:16:00,59.9,36.2,31.33,SW,220,0.0,0.0,41,0.00,,---,0.00,VWS V14.01,2013-04-04 21:16:00,
2013-04-04 14:21:00,60.4,36.6,31.33,South,186,0.0,0.0,41,0.00,,---,0.00,VWS V14.01,2013-04-04 21:21:00,
2013-04-04 14:26:00,60.5,36.7,31.33,SSW,203,0.0,0.0,41,0.00,,---,0.00,VWS V14.01,2013-04-04 21:26:00,
2013-04-04 14:32:00,60.7,36.9,31.33,SSW,211,0.0,0.0,41,0.00,,---,0.00,VWS V14.01,2013-04-04 21:32:00,
2013-04-04 14:38:00,59.5,37.0,31.33,SSW,193,0.0,0.0,43,0.00,,---,0.00,VWS V14.01,2013-04-04 21:38:00,
2013-04-04 14:43:00,59.2,37.3,29.64,SSW,195,0.0,0.0,44,0.00,,---,0.00,VWS V14.01,2013-04-04 21:43:00,
2013-04-04 14:49:00,58.6,36.8,31.32,SW,221,0.0,0.0,44,0.00,,---,0.00,VWS V14.01,2013-04-04 21:49:00,
2013-04-04 14:54:00,57.8,37.2,31.32,SSW,213,0.0,0.0,46,0.00,,---,0.00,VWS V14.01,2013-04-04 21:54:00,
2013-04-04 14:59:00,58.7,38.0,31.32,SSW,193,0.0,0.0,46,0.00,,---,0.00,VWS V14.01,2013-04-04 21:59:00,
2013-04-04 15:04:00,58.9,39.3,31.32,SW,222,0.0,0.0,48,0.00,,---,0.00,VWS V14.01,2013-04-04 22:04:00,
2013-04-04 15:09:00,58.4,37.7,31.32,WSW,239,0.0,0.0,46,0.00,,---,0.00,VWS V14.01,2013-04-04 22:09:00,
2013-04-04 15:15:00,57.8,38.8,31.31,SSW,204,0.0,0.0,49,0.00,,---,0.00,VWS V14.01,2013-04-04 22:15:00,
2013-04-04 15:20:00,57.8,38.8,31.31,SW,234,0.0,0.0,49,0.00,,---,0.00,VWS V14.01,2013-04-04 22:20:00,
2013-04-04 15:25:00,58.4,39.3,31.31,WSW,257,0.0,0.0,49,0.00,,---,0.00,VWS V14.01,2013-04-04 22:25:00,
2013-04-04 15:30:00,56.9,39.5,31.31,SW,231,0.0,0.0,52,0.00,,---,0.00,VWS V14.01,2013-04-04 22:30:00,
2013-04-04 15:35:00,55.7,39.3,31.31,SW,233,0.0,0.0,54,0.00,,---,0.00,VWS V14.01,2013-04-04 22:35:00,
2013-04-04 15:41:00,55.1,40.6,31.31,WSW,240,0.0,0.0,58,0.00,,---,0.00,VWS V14.01,2013-04-04 22:41:00,
2013-04-04 15:46:00,54.8,39.9,31.31,SSW,213,0.0,0.0,57,0.00,,---,0.00,VWS V14.01,2013-04-04 22:46:00,
2013-04-04 15:51:00,54.8,39.0,31.31,SW,219,0.0,0.0,55,0.00,,---,0.00,VWS V14.01,2013-04-04 22:51:00,
2013-04-04 15:56:00,54.7,38.4,31.31,SSW,207,0.0,0.0,54,0.00,,---,0.00,VWS V14.01,2013-04-04 22:56:00,
2013-04-04 16:01:00,54.1,38.8,17.38,SSW,198,0.0,0.0,56,0.00,,---,0.00,VWS V14.01,2013-04-04 23:01:00,
2013-04-04 16:06:00,53.9,38.1,17.38,SW,226,0.0,0.0,55,0.00,,---,0.00,VWS V14.01,2013-04-04 23:06:00,
2013-04-04 16:11:00,54.4,38.6,17.38,WSW,243,0.0,0.0,55,0.00,,---,0.00,VWS V14.01,2013-04-04 23:11:00,
2013-04-04 16:16:00,53.8,38.0,17.38,SW,223,0.0,0.0,55,0.00,,---,0.00,VWS V14.01,2013-04-04 23:16:00,
2013-04-04 16:21:00,53.3,38.0,17.38,SSW,200,0.0,0.0,56,0.00,,---,0.00,VWS V14.01,2013-04-04 23:21:00,
2013-04-04 16:26:00,53.2,38.4,30.15,SW,221,0.0,0.0,57,0.00,,---,0.00,VWS V14.01,2013-04-04 23:26:00,
2013-04-04 16:32:00,53.6,38.8,30.15,SW,219,0.0,0.0,57,0.00,,---,0.00,VWS V14.01,2013-04-04 23:32:00,
2013-04-04 16:37:00,53.6,37.8,28.47,SW,234,0.0,0.0,55,0.00,,---,0.00,VWS V14.01,2013-04-04 23:37:00,
2013-04-04 16:42:00,53.6,37.8,28.47,WSW,242,0.0,0.0,55,0.00,,---,0.00,VWS V14.01,2013-04-04 23:42:00,
2013-04-04 16:47:00,54.1,38.8,30.15,SSW,204,0.0,0.0,56,0.00,,---,0.00,VWS V14.01,2013-04-04 23:47:00,
2013-04-04 16:52:00,53.9,37.7,28.47,SSW,196,0.0,0.0,54,0.00,,---,0.00,VWS V14.01,2013-04-04 23:52:00,
2013-04-04 16:57:00,53.9,37.2,28.47,WSW,251,0.0,0.0,53,0.00,,---,0.00,VWS V14.01,2013-04-04 23:57:00,
2013-04-04 17:02:00,53.5,37.3,30.15,SW,236,0.0,0.0,54,0.00,,---,0.00,VWS V14.01,2013-04-05 00:02:00,
2013-04-04 17:07:00,53.5,37.3,30.15,SW,230,0.0,0.0,54,0.00,,---,0.00,VWS V14.01,2013-04-05 00:07:00,
2013-04-04 17:12:00,53.5,36.8,30.15,SSW,212,0.0,0.0,53,0.00,,---,0.00,VWS V14.01,2013-04-05 00:12:00,
2013-04-04 17:18:00,53.1,36.9,30.15,SW,226,0.0,0.0,54,0.00,,---,0.00,VWS V14.01,2013-04-05 00:18:00,
2013-04-04 17:23:00,52.8,37.5,30.15,WSW,251,0.0,0.0,56,0.00,,---,0.00,VWS V14.01,2013-04-05 00:23:00,
2013-04-04 17:28:00,52.8,36.6,30.15,WSW,237,0.0,0.0,54,0.00,,---,0.00,VWS V14.01,2013-04-05 00:28:00,
2013-04-04 17:33:00,52.6,37.4,30.15,SSW,196,0.0,0.0,56,0.00,,---,0.00,VWS V14.01,2013-04-05 00:33:00,
2013-04-04 17:38:00,52.5,36.8,28.47,SW,221,0.0,0.0,55,0.00,,---,0.00,VWS V14.01,2013-04-05 00:38:00,
2013-04-04 17:43:00,52.3,36.2,28.48,SSW,211,0.0,0.0,54,0.00,,---,0.00,VWS V14.01,2013-04-05 00:43:00,
2013-04-04 17:48:00,51.9,36.3,28.48,SW,234,0.0,0.0,55,0.00,,---,0.00,VWS V14.01,2013-04-05 00:48:00,
2013-04-04 17:53:00,51.9,36.7,28.48,WSW,244,0.0,0.0,56,0.00,,---,0.00,VWS V14.01,2013-04-05 00:53:00,
2013-04-04 17:59:00,51.4,36.7,28.48,SW,219,0.0,0.0,57,0.00,,---,0.00,VWS V14.01,2013-04-05 00:59:00,
2013-04-04 18:04:00,51.3,36.2,30.16,SW,229,0.0,0.0,56,0.00,,---,0.00,VWS V14.01,2013-04-05 01:04:00,
2013-04-04 18:09:00,51.1,36.4,30.16,SW,224,0.0,0.0,57,0.00,,---,0.00,VWS V14.01,2013-04-05 01:09:00,
2013-04-04 18:14:00,50.8,36.6,28.48,SW,229,0.0,0.0,58,0.00,,---,0.00,VWS V14.01,2013-04-05 01:14:00,
2013-04-04 18:19:00,50.5,36.7,31.84,WSW,239,0.0,0.0,59,0.00,,---,0.00,VWS V14.01,2013-04-05 01:19:00,
2013-04-04 18:24:00,50.1,36.3,31.84,SW,224,0.0,0.0,59,0.00,,---,0.00,VWS V14.01,2013-04-05 01:24:00,
2013-04-04 18:30:00,49.6,36.3,31.84,West,261,0.0,0.0,60,0.00,,---,0.00,VWS V14.01,2013-04-05 01:30:00,
2013-04-04 18:35:00,49.4,36.9,25.41,West,273,0.0,0.0,62,0.00,,---,0.00,VWS V14.01,2013-04-05 01:35:00,
2013-04-04 18:40:00,49.2,36.8,25.41,WNW,296,0.0,0.0,62,0.00,,---,0.00,VWS V14.01,2013-04-05 01:40:00,
2013-04-04 18:45:00,48.9,35.6,25.41,West,277,0.0,0.0,60,0.00,,---,0.00,VWS V14.01,2013-04-05 01:45:00,
2013-04-04 18:50:00,48.2,34.6,27.10,West,263,0.0,0.0,59,0.00,,---,0.00,VWS V14.01,2013-04-05 01:50:00,
2013-04-04 18:55:00,47.4,34.6,27.10,West,265,0.0,0.0,61,0.00,,---,0.00,VWS V14.01,2013-04-05 01:55:00,
2013-04-04 19:00:00,46.8,34.1,27.10,WSW,241,0.0,0.0,61,0.00,,---,0.00,VWS V14.01,2013-04-05 02:00:00,
2013-04-04 19:05:00,46.2,33.9,27.10,WSW,239,0.0,0.0,62,0.00,,---,0.00,VWS V14.01,2013-04-05 02:05:00,
2013-04-04 19:10:00,46.1,34.2,27.11,WSW,258,0.0,0.0,63,0.00,,---,0.00,VWS V14.01,2013-04-05 02:10:00,
2013-04-04 19:15:00,45.7,34.2,27.11,ESE,109,0.0,0.0,64,0.00,,---,0.00,VWS V14.01,2013-04-05 02:15:00,
2013-04-04 19:21:00,45.5,34.4,27.11,SSE,163,0.0,0.0,65,0.00,,---,0.00,VWS V14.01,2013-04-05 02:21:00,
2013-04-04 19:26:00,45.7,34.6,27.11,SSW,196,0.0,0.0,65,0.00,,---,0.00,VWS V14.01,2013-04-05 02:26:00,
2013-04-04 19:31:00,45.8,35.1,27.11,South,182,0.0,0.0,66,0.00,,---,0.00,VWS V14.01,2013-04-05 02:31:00,
2013-04-04 19:37:00,46.0,34.9,27.11,SSW,207,0.0,0.0,65,0.00,,---,0.00,VWS V14.01,2013-04-05 02:37:00,
2013-04-04 19:42:00,46.0,34.1,27.11,SSW,200,0.0,0.0,63,0.00,,---,0.00,VWS V14.01,2013-04-05 02:42:00,
2013-04-04 19:47:00,46.0,34.1,27.11,SW,218,0.0,0.0,63,0.00,,---,0.00,VWS V14.01,2013-04-05 02:47:00,
2013-04-04 19:52:00,45.8,34.3,27.11,SSW,207,0.0,0.0,64,0.00,,---,0.00,VWS V14.01,2013-04-05 02:52:00,
2013-04-04 19:57:00,45.7,34.2,27.11,WSW,247,0.0,0.0,64,0.00,,---,0.00,VWS V14.01,2013-04-05 02:57:00,
2013-04-04 20:02:00,45.5,34.4,27.11,SW,229,0.0,0.0,65,0.00,,---,0.00,VWS V14.01,2013-04-05 03:02:00,
2013-04-04 20:07:00,45.2,34.2,20.76,SSW,209,0.0,0.0,65,0.00,,---,0.00,VWS V14.01,2013-04-05 03:07:00,
2013-04-04 20:12:00,45.1,34.0,20.76,SSW,204,0.0,0.0,65,0.00,,---,0.00,VWS V14.01,2013-04-05 03:12:00,
2013-04-04 20:17:00,44.8,34.2,31.24,South,169,0.0,0.0,66,0.00,,---,0.00,VWS V14.01,2013-04-05 03:17:00,
2013-04-04 20:23:00,44.5,34.6,31.24,SSW,211,0.0,0.0,68,0.00,,---,0.00,VWS V14.01,2013-04-05 03:23:00,
2013-04-04 20:28:00,44.3,34.4,20.76,South,185,0.0,0.0,68,0.00,,---,0.00,VWS V14.01,2013-04-05 03:28:00,
2013-04-04 20:33:00,44.1,34.6,20.76,SSW,196,0.0,0.0,69,0.00,,---,0.00,VWS V14.01,2013-04-05 03:33:00,
2013-04-04 20:38:00,43.8,34.3,31.24,SSW,199,0.0,0.0,69,0.00,,---,0.00,VWS V14.01,2013-04-05 03:38:00,
2013-04-04 20:43:00,43.6,34.5,31.24,SSW,200,0.0,0.0,70,0.00,,---,0.00,VWS V14.01,2013-04-05 03:43:00,
2013-04-04 20:48:00,43.6,34.5,31.24,South,176,0.0,0.0,70,0.00,,---,0.00,VWS V14.01,2013-04-05 03:48:00,
2013-04-04 20:53:00,43.9,34.8,31.24,SW,216,0.0,0.0,70,0.00,,---,0.00,VWS V14.01,2013-04-05 03:53:00,
2013-04-04 20:58:00,43.6,34.8,20.76,SSW,209,0.0,0.0,71,0.00,,---,0.00,VWS V14.01,2013-04-05 03:58:00,
2013-04-04 21:00:00,43.8,34.7,20.76,SW,216,0.0,0.0,70,0.00,,---,0.00,VWS V14.01,2013-04-05 04:00:00,
2013-04-04 21:01:00,43.8,35.0,31.24,SSW,193,0.0,0.0,71,0.00,,---,0.00,VWS V14.01,2013-04-05 04:01:00,
2013-04-04 21:07:00,43.3,34.9,31.23,SSW,195,0.0,0.0,72,0.00,,---,0.00,VWS V14.01,2013-04-05 04:07:00,
2013-04-04 21:12:00,42.8,35.1,31.23,South,190,0.0,0.0,74,0.00,,---,0.00,VWS V14.01,2013-04-05 04:12:00,
2013-04-04 21:17:00,42.6,35.2,31.23,SSW,201,0.0,0.0,75,0.00,,---,0.00,VWS V14.01,2013-04-05 04:17:00,
2013-04-04 21:22:00,42.5,35.2,31.23,SW,215,0.0,0.0,75,0.00,,---,0.00,VWS V14.01,2013-04-05 04:22:00,
2013-04-04 21:27:00,42.6,34.9,31.23,SSW,196,0.0,0.0,74,0.00,,---,0.00,VWS V14.01,2013-04-05 04:27:00,
2013-04-04 21:32:00,42.5,34.8,31.23,SSW,204,0.0,0.0,74,0.00,,---,0.00,VWS V14.01,2013-04-05 04:32:00,
2013-04-04 21:37:00,42.3,34.6,31.23,SSW,202,0.0,0.0,74,0.00,,---,0.00,VWS V14.01,2013-04-05 04:37:00,
2013-04-04 21:42:00,42.2,34.5,31.23,SSW,208,0.0,0.0,74,0.00,,---,0.00,VWS V14.01,2013-04-05 04:42:00,
2013-04-04 21:47:00,42.2,34.2,31.23,SW,219,0.0,0.0,73,0.00,,---,0.00,VWS V14.01,2013-04-05 04:47:00,
2013-04-04 21:52:00,42.2,34.2,31.23,West,269,0.0,0.0,73,0.00,,---,0.00,VWS V14.01,2013-04-05 04:52:00,
2013-04-04 21:57:00,42.1,34.1,31.23,SW,232,0.0,0.0,73,0.00,,---,0.00,VWS V14.01,2013-04-05 04:57:00,
2013-04-04 22:03:00,42.3,34.3,31.23,WSW,244,0.0,0.0,73,0.00,,---,0.00,VWS V14.01,2013-04-05 05:03:00,
2013-04-04 22:08:00,42.3,34.3,31.25,SW,223,0.0,0.0,73,0.00,,---,0.00,VWS V14.01,2013-04-05 05:08:00,
2013-04-04 22:13:00,42.5,34.8,31.25,SSW,209,0.0,0.0,74,0.00,,---,0.00,VWS V14.01,2013-04-05 05:13:00,
2013-04-04 22:18:00,42.6,34.6,31.25,SW,222,0.0,0.0,73,0.00,,---,0.00,VWS V14.01,2013-04-05 05:18:00,
2013-04-04 22:23:00,42.9,34.2,31.25,WSW,250,0.0,0.0,71,0.00,,---,0.00,VWS V14.01,2013-04-05 05:23:00,
2013-04-04 22:28:00,43.3,34.5,31.25,WSW,250,0.0,0.0,71,0.00,,---,0.00,VWS V14.01,2013-04-05 05:28:00,
2013-04-04 22:33:00,43.1,35.0,31.25,West,279,0.0,0.0,73,0.00,,---,0.00,VWS V14.01,2013-04-05 05:33:00,
2013-04-04 22:38:00,42.3,35.6,31.26,WNW,284,0.0,0.0,77,0.00,,---,0.00,VWS V14.01,2013-04-05 05:38:00,
2013-04-04 22:44:00,41.6,35.9,31.26,West,280,0.0,0.0,80,0.00,,---,0.00,VWS V14.01,2013-04-05 05:44:00,
2013-04-04 22:49:00,41.1,36.0,31.25,West,263,0.0,0.0,82,0.00,,---,0.00,VWS V14.01,2013-04-05 05:49:00,
2013-04-04 22:54:00,40.8,36.0,31.25,West,263,0.0,0.0,83,0.00,,---,0.00,VWS V14.01,2013-04-05 05:54:00,
2013-04-04 22:59:00,40.8,36.0,31.25,West,263,0.0,0.0,83,0.00,,---,0.00,VWS V14.01,2013-04-05 05:59:00,
2013-04-04 23:04:00,40.8,36.0,31.25,SSE,157,0.0,0.0,83,0.00,,---,0.00,VWS V14.01,2013-04-05 06:04:00,
2013-04-04 23:09:00,40.8,36.0,31.27,ESE,117,0.0,0.0,83,0.00,,---,0.00,VWS V14.01,2013-04-05 06:09:00,
2013-04-04 23:14:00,40.8,36.0,31.27,ESE,121,0.0,0.0,83,0.00,,---,0.00,VWS V14.01,2013-04-05 06:14:00,
2013-04-04 23:19:00,40.8,36.0,31.27,SE,145,0.0,0.0,83,0.00,,---,0.00,VWS V14.01,2013-04-05 06:19:00,
2013-04-04 23:24:00,41.1,36.3,31.27,SE,141,0.0,0.0,83,0.00,,---,0.00,VWS V14.01,2013-04-05 06:24:00,
2013-04-04 23:29:00,41.1,36.0,31.27,SE,144,0.0,0.0,82,0.00,,---,0.00,VWS V14.01,2013-04-05 06:29:00,
2013-04-04 23:34:00,41.3,35.6,31.27,SSE,157,0.0,0.0,80,0.00,,---,0.00,VWS V14.01,2013-04-05 06:34:00,
2013-04-04 23:40:00,41.2,35.5,31.27,South,189,0.0,0.0,80,0.00,,---,0.00,VWS V14.01,2013-04-05 06:40:00,
2013-04-04 23:45:00,40.9,35.2,31.26,South,189,0.0,0.0,80,0.00,,---,0.00,VWS V14.01,2013-04-05 06:45:00,
2013-04-04 23:50:00,40.9,35.2,31.26,South,190,0.0,0.0,80,0.00,,---,0.00,VWS V14.01,2013-04-05 06:50:00,
2013-04-04 23:55:00,40.8,34.8,31.26,SSW,200,0.0,0.0,79,0.00,,---,0.00,VWS V14.01,2013-04-05 06:55:00,